sensor_id;sensor_type;location;lat;lon;timestamp;pressure;altitude;pressure_sealevel;temperature;humidity
79374;BME280;68844;53.128;17.958;2023-10-08T00:00:48;100894.46;;;10.72;85.25
79374;BME280;68844;53.128;17.958;2023-10-08T00:03:39;100897.34;;;10.71;85.56
79374;BME280;68844;53.128;17.958;2023-10-08T00:06:06;100919.61;;;10.70;85.11
79374;BME280;68844;53.128;17.958;2023-10-08T00:08:33;100921.47;;;10.68;85.32
79374;BME280;68844;53.128;17.958;2023-10-08T00:10:59;100924.23;;;10.69;85.35
79374;BME280;68844;53.128;17.958;2023-10-08T00:13:32;100920.66;;;10.73;84.88
79374;BME280;68844;53.128;17.958;2023-10-08T00:16:02;100920.20;;;10.75;85.12
79374;BME280;68844;53.128;17.958;2023-10-08T00:18:27;100917.79;;;10.74;85.30
79374;BME280;68844;53.128;17.958;2023-10-08T00:20:53;100928.76;;;10.73;85.42
79374;BME280;68844;53.128;17.958;2023-10-08T00:23:45;100924.30;;;10.71;85.29
79374;BME280;68844;53.128;17.958;2023-10-08T00:26:23;100910.59;;;10.71;84.99
79374;BME280;68844;53.128;17.958;2023-10-08T00:28:57;100903.40;;;10.70;84.67
79374;BME280;68844;53.128;17.958;2023-10-08T00:31:26;100905.23;;;10.69;85.46
79374;BME280;68844;53.128;17.958;2023-10-08T00:34:12;100899.96;;;10.62;85.52
79374;BME280;68844;53.128;17.958;2023-10-08T00:36:41;100904.45;;;10.58;85.20
79374;BME280;68844;53.128;17.958;2023-10-08T00:39:08;100918.02;;;10.54;84.64
79374;BME280;68844;53.128;17.958;2023-10-08T00:41:55;100941.63;;;10.51;84.87
79374;BME280;68844;53.128;17.958;2023-10-08T00:44:24;100943.56;;;10.48;85.04
79374;BME280;68844;53.128;17.958;2023-10-08T00:46:59;100955.81;;;10.42;85.08
79374;BME280;68844;53.128;17.958;2023-10-08T00:49:27;100970.75;;;10.39;84.36
79374;BME280;68844;53.128;17.958;2023-10-08T00:52:10;100972.25;;;10.31;83.06
79374;BME280;68844;53.128;17.958;2023-10-08T00:54:40;100969.52;;;10.29;82.74
79374;BME280;68844;53.128;17.958;2023-10-08T00:57:27;100969.77;;;10.25;83.06
79374;BME280;68844;53.128;17.958;2023-10-08T00:59:56;100972.20;;;10.18;82.45
79374;BME280;68844;53.128;17.958;2023-10-08T01:02:31;100955.58;;;10.13;81.61
79374;BME280;68844;53.128;17.958;2023-10-08T01:05:15;100963.98;;;10.07;81.95
79374;BME280;68844;53.128;17.958;2023-10-08T01:07:46;100969.86;;;10.02;81.96
79374;BME280;68844;53.128;17.958;2023-10-08T01:10:16;100970.23;;;10.01;82.24
79374;BME280;68844;53.128;17.958;2023-10-08T01:12:47;100967.82;;;10.00;82.72
79374;BME280;68844;53.128;17.958;2023-10-08T01:15:37;100971.08;;;9.95;82.18
79374;BME280;68844;53.128;17.958;2023-10-08T01:18:03;100981.56;;;9.93;81.82
79374;BME280;68844;53.128;17.958;2023-10-08T01:20:32;100989.40;;;9.87;81.42
79374;BME280;68844;53.128;17.958;2023-10-08T01:23:04;100987.60;;;9.89;81.35
79374;BME280;68844;53.128;17.958;2023-10-08T01:25:36;100986.31;;;9.86;81.00
79374;BME280;68844;53.128;17.958;2023-10-08T01:28:05;100984.66;;;9.80;80.79
79374;BME280;68844;53.128;17.958;2023-10-08T01:30:35;100990.55;;;9.79;79.62
79374;BME280;68844;53.128;17.958;2023-10-08T01:33:06;101002.02;;;9.78;79.19
79374;BME280;68844;53.128;17.958;2023-10-08T01:35:37;101009.27;;;9.81;79.64
79374;BME280;68844;53.128;17.958;2023-10-08T01:38:04;101020.02;;;9.77;78.83
79374;BME280;68844;53.128;17.958;2023-10-08T01:40:30;101018.60;;;9.70;78.82
79374;BME280;68844;53.128;17.958;2023-10-08T01:42:56;101027.27;;;9.65;78.95
79374;BME280;68844;53.128;17.958;2023-10-08T01:45:31;101036.82;;;9.65;78.69
79374;BME280;68844;53.128;17.958;2023-10-08T01:48:01;101044.32;;;9.66;78.77
79374;BME280;68844;53.128;17.958;2023-10-08T01:50:27;101048.39;;;9.65;78.60
79374;BME280;68844;53.128;17.958;2023-10-08T01:52:56;101045.13;;;9.63;77.49
79374;BME280;68844;53.128;17.958;2023-10-08T01:55:22;101048.22;;;9.57;77.55
79374;BME280;68844;53.128;17.958;2023-10-08T01:57:49;101049.54;;;9.52;76.75
79374;BME280;68844;53.128;17.958;2023-10-08T02:00:19;101065.65;;;9.53;76.84
79374;BME280;68844;53.128;17.958;2023-10-08T02:02:47;101075.91;;;9.56;75.92
79374;BME280;68844;53.128;17.958;2023-10-08T02:05:14;101069.69;;;9.50;76.15
79374;BME280;68844;53.128;17.958;2023-10-08T02:07:41;101063.71;;;9.46;76.11
79374;BME280;68844;53.128;17.958;2023-10-08T02:10:10;101066.96;;;9.44;75.62
79374;BME280;68844;53.128;17.958;2023-10-08T02:12:40;101065.59;;;9.47;75.99
79374;BME280;68844;53.128;17.958;2023-10-08T02:15:09;101075.38;;;9.45;75.93
79374;BME280;68844;53.128;17.958;2023-10-08T02:17:38;101079.92;;;9.41;74.82
79374;BME280;68844;53.128;17.958;2023-10-08T02:20:05;101085.19;;;9.38;74.70
79374;BME280;68844;53.128;17.958;2023-10-08T02:22:34;101083.95;;;9.35;74.11
79374;BME280;68844;53.128;17.958;2023-10-08T02:25:01;101094.31;;;9.35;74.30
79374;BME280;68844;53.128;17.958;2023-10-08T02:27:28;101093.98;;;9.34;75.11
79374;BME280;68844;53.128;17.958;2023-10-08T02:29:54;101097.42;;;9.29;75.08
79374;BME280;68844;53.128;17.958;2023-10-08T02:32:21;101101.34;;;9.23;74.22
79374;BME280;68844;53.128;17.958;2023-10-08T02:34:49;101100.90;;;9.17;74.39
79374;BME280;68844;53.128;17.958;2023-10-08T02:37:16;101109.56;;;9.13;74.40
79374;BME280;68844;53.128;17.958;2023-10-08T02:39:42;101113.30;;;9.11;74.19
79374;BME280;68844;53.128;17.958;2023-10-08T02:42:09;101118.10;;;9.06;74.72
79374;BME280;68844;53.128;17.958;2023-10-08T02:44:36;101120.23;;;9.02;72.79
79374;BME280;68844;53.128;17.958;2023-10-08T02:47:08;101126.85;;;8.92;72.04
79374;BME280;68844;53.128;17.958;2023-10-08T02:49:35;101127.91;;;8.79;71.44
79374;BME280;68844;53.128;17.958;2023-10-08T02:52:02;101136.59;;;8.69;71.59
79374;BME280;68844;53.128;17.958;2023-10-08T02:54:30;101146.94;;;8.58;71.53
79374;BME280;68844;53.128;17.958;2023-10-08T02:57:02;101152.17;;;8.54;71.23
79374;BME280;68844;53.128;17.958;2023-10-08T02:59:33;101156.16;;;8.47;71.79
79374;BME280;68844;53.128;17.958;2023-10-08T03:02:10;101162.91;;;8.32;71.71
79374;BME280;68844;53.128;17.958;2023-10-08T03:04:45;101165.88;;;8.19;71.74
79374;BME280;68844;53.128;17.958;2023-10-08T03:07:15;101168.13;;;8.11;71.27
79374;BME280;68844;53.128;17.958;2023-10-08T03:09:49;101172.42;;;8.00;71.43
79374;BME280;68844;53.128;17.958;2023-10-08T03:12:18;101168.02;;;8.00;71.29
79374;BME280;68844;53.128;17.958;2023-10-08T03:14:44;101179.28;;;7.95;71.35
79374;BME280;68844;53.128;17.958;2023-10-08T03:17:28;101188.09;;;7.86;71.90
79374;BME280;68844;53.128;17.958;2023-10-08T03:19:56;101192.89;;;7.74;72.22
79374;BME280;68844;53.128;17.958;2023-10-08T03:22:48;101197.52;;;7.59;72.26
79374;BME280;68844;53.128;17.958;2023-10-08T03:25:15;101203.56;;;7.52;72.99
79374;BME280;68844;53.128;17.958;2023-10-08T03:27:46;101209.30;;;7.44;73.66
79374;BME280;68844;53.128;17.958;2023-10-08T03:30:14;101211.09;;;7.38;73.12
79374;BME280;68844;53.128;17.958;2023-10-08T03:32:42;101217.64;;;7.32;72.92
79374;BME280;68844;53.128;17.958;2023-10-08T03:35:10;101220.13;;;7.31;71.88
79374;BME280;68844;53.128;17.958;2023-10-08T03:37:38;101224.35;;;7.25;72.28
79374;BME280;68844;53.128;17.958;2023-10-08T03:40:11;101228.46;;;7.17;71.69
79374;BME280;68844;53.128;17.958;2023-10-08T03:42:56;101232.77;;;7.14;71.98
79374;BME280;68844;53.128;17.958;2023-10-08T03:45:22;101230.38;;;7.08;72.64
79374;BME280;68844;53.128;17.958;2023-10-08T03:48:06;101229.18;;;6.97;72.74
79374;BME280;68844;53.128;17.958;2023-10-08T03:50:36;101234.05;;;6.88;72.92
79374;BME280;68844;53.128;17.958;2023-10-08T03:53:09;101242.95;;;6.79;72.47
79374;BME280;68844;53.128;17.958;2023-10-08T03:55:39;101243.38;;;6.76;71.91
79374;BME280;68844;53.128;17.958;2023-10-08T03:58:09;101245.34;;;6.75;71.58
79374;BME280;68844;53.128;17.958;2023-10-08T04:00:54;101252.61;;;6.72;71.68
79374;BME280;68844;53.128;17.958;2023-10-08T04:03:37;101253.48;;;6.67;71.25
79374;BME280;68844;53.128;17.958;2023-10-08T04:06:29;101252.16;;;6.59;71.69
79374;BME280;68844;53.128;17.958;2023-10-08T04:09:05;101256.89;;;6.49;71.67
79374;BME280;68844;53.128;17.958;2023-10-08T04:11:51;101260.55;;;6.38;71.84
79374;BME280;68844;53.128;17.958;2023-10-08T04:14:18;101266.09;;;6.29;72.75
79374;BME280;68844;53.128;17.958;2023-10-08T04:16:46;101272.43;;;6.21;72.53
79374;BME280;68844;53.128;17.958;2023-10-08T04:19:12;101278.93;;;6.15;73.09
79374;BME280;68844;53.128;17.958;2023-10-08T04:21:38;101282.17;;;6.06;74.20
79374;BME280;68844;53.128;17.958;2023-10-08T04:24:07;101284.11;;;5.93;74.13
79374;BME280;68844;53.128;17.958;2023-10-08T04:26:35;101286.55;;;5.81;73.88
79374;BME280;68844;53.128;17.958;2023-10-08T04:29:02;101291.27;;;5.69;73.72
79374;BME280;68844;53.128;17.958;2023-10-08T04:31:29;101291.77;;;5.57;73.99
79374;BME280;68844;53.128;17.958;2023-10-08T04:34:12;101292.87;;;5.49;74.69
79374;BME280;68844;53.128;17.958;2023-10-08T04:36:49;101298.36;;;5.40;75.38
79374;BME280;68844;53.128;17.958;2023-10-08T04:39:22;101300.55;;;5.29;75.55
79374;BME280;68844;53.128;17.958;2023-10-08T04:41:52;101308.49;;;5.20;75.43
79374;BME280;68844;53.128;17.958;2023-10-08T04:44:24;101310.88;;;5.08;75.68
79374;BME280;68844;53.128;17.958;2023-10-08T04:46:51;101314.89;;;5.02;75.68
79374;BME280;68844;53.128;17.958;2023-10-08T04:49:19;101313.81;;;4.96;76.54
79374;BME280;68844;53.128;17.958;2023-10-08T04:51:56;101321.17;;;4.88;76.82
79374;BME280;68844;53.128;17.958;2023-10-08T04:54:26;101330.44;;;4.79;76.96
79374;BME280;68844;53.128;17.958;2023-10-08T04:57:00;101333.45;;;4.71;77.02
79374;BME280;68844;53.128;17.958;2023-10-08T04:59:30;101332.75;;;4.63;76.78
79374;BME280;68844;53.128;17.958;2023-10-08T05:02:03;101335.40;;;4.61;77.17
79374;BME280;68844;53.128;17.958;2023-10-08T05:04:51;101339.36;;;4.56;77.97
79374;BME280;68844;53.128;17.958;2023-10-08T05:07:20;101338.23;;;4.52;78.49
79374;BME280;68844;53.128;17.958;2023-10-08T05:09:48;101342.83;;;4.50;78.28
79374;BME280;68844;53.128;17.958;2023-10-08T05:12:29;101350.21;;;4.47;77.99
79374;BME280;68844;53.128;17.958;2023-10-08T05:15:04;101358.70;;;4.49;78.22
79374;BME280;68844;53.128;17.958;2023-10-08T05:17:43;101364.79;;;4.50;78.77
79374;BME280;68844;53.128;17.958;2023-10-08T05:20:32;101369.16;;;4.50;79.18
79374;BME280;68844;53.128;17.958;2023-10-08T05:23:18;101377.70;;;4.50;79.31
79374;BME280;68844;53.128;17.958;2023-10-08T05:25:52;101388.11;;;4.52;79.17
79374;BME280;68844;53.128;17.958;2023-10-08T05:28:35;101388.98;;;4.60;79.28
79374;BME280;68844;53.128;17.958;2023-10-08T05:31:28;101397.42;;;4.65;79.42
79374;BME280;68844;53.128;17.958;2023-10-08T05:34:18;101401.89;;;4.67;79.29
79374;BME280;68844;53.128;17.958;2023-10-08T05:36:59;101407.77;;;4.70;79.42
79374;BME280;68844;53.128;17.958;2023-10-08T05:39:25;101417.41;;;4.76;79.16
79374;BME280;68844;53.128;17.958;2023-10-08T05:41:51;101423.87;;;4.84;79.31
79374;BME280;68844;53.128;17.958;2023-10-08T05:44:18;101427.35;;;4.92;79.69
79374;BME280;68844;53.128;17.958;2023-10-08T05:46:44;101429.45;;;4.98;79.95
79374;BME280;68844;53.128;17.958;2023-10-08T05:49:19;101431.73;;;5.06;79.95
79374;BME280;68844;53.128;17.958;2023-10-08T05:51:52;101438.33;;;5.14;79.55
79374;BME280;68844;53.128;17.958;2023-10-08T05:54:28;101440.38;;;5.24;79.36
79374;BME280;68844;53.128;17.958;2023-10-08T05:56:58;101449.77;;;5.40;79.23
79374;BME280;68844;53.128;17.958;2023-10-08T05:59:38;101459.52;;;5.55;79.47
79374;BME280;68844;53.128;17.958;2023-10-08T06:02:29;101464.67;;;5.65;78.81
79374;BME280;68844;53.128;17.958;2023-10-08T06:07:41;101474.85;;;5.85;78.24
79374;BME280;68844;53.128;17.958;2023-10-08T06:10:29;101477.99;;;5.92;77.94
79374;BME280;68844;53.128;17.958;2023-10-08T06:13:08;101484.39;;;6.02;77.34
79374;BME280;68844;53.128;17.958;2023-10-08T06:15:40;101486.88;;;6.14;77.81
79374;BME280;68844;53.128;17.958;2023-10-08T06:18:11;101491.42;;;6.20;77.94
79374;BME280;68844;53.128;17.958;2023-10-08T06:20:41;101492.98;;;6.27;77.49
79374;BME280;68844;53.128;17.958;2023-10-08T06:23:14;101498.86;;;6.35;77.05
79374;BME280;68844;53.128;17.958;2023-10-08T06:25:47;101497.44;;;6.42;76.61
79374;BME280;68844;53.128;17.958;2023-10-08T06:28:20;101506.30;;;6.51;76.12
79374;BME280;68844;53.128;17.958;2023-10-08T06:30:51;101508.21;;;6.64;76.17
79374;BME280;68844;53.128;17.958;2023-10-08T06:33:21;101512.77;;;7.37;76.44
79374;BME280;68844;53.128;17.958;2023-10-08T06:35:48;101503.23;;;10.27;72.26
79374;BME280;68844;53.128;17.958;2023-10-08T06:38:32;101507.95;;;12.97;66.30
79374;BME280;68844;53.128;17.958;2023-10-08T06:41:03;101509.61;;;14.77;57.70
79374;BME280;68844;53.128;17.958;2023-10-08T06:43:50;101518.27;;;16.39;52.33
79374;BME280;68844;53.128;17.958;2023-10-08T06:46:17;101521.15;;;17.98;50.40
79374;BME280;68844;53.128;17.958;2023-10-08T06:48:48;101523.34;;;19.07;45.95
79374;BME280;68844;53.128;17.958;2023-10-08T06:51:15;101528.48;;;20.47;45.19
79374;BME280;68844;53.128;17.958;2023-10-08T06:53:46;101528.40;;;21.51;41.83
79374;BME280;68844;53.128;17.958;2023-10-08T06:56:15;101536.61;;;22.50;38.28
79374;BME280;68844;53.128;17.958;2023-10-08T06:58:42;101527.55;;;23.61;35.71
79374;BME280;68844;53.128;17.958;2023-10-08T07:01:22;101532.66;;;24.37;32.13
79374;BME280;68844;53.128;17.958;2023-10-08T07:03:48;101529.95;;;24.57;30.30
79374;BME280;68844;53.128;17.958;2023-10-08T07:06:18;101524.28;;;24.79;29.54
79374;BME280;68844;53.128;17.958;2023-10-08T07:09:01;101529.71;;;25.46;29.07
79374;BME280;68844;53.128;17.958;2023-10-08T07:11:52;101536.73;;;25.28;27.50
79374;BME280;68844;53.128;17.958;2023-10-08T07:14:26;101540.48;;;25.18;26.45
79374;BME280;68844;53.128;17.958;2023-10-08T07:16:56;101542.71;;;25.66;25.48
79374;BME280;68844;53.128;17.958;2023-10-08T07:19:26;101546.55;;;26.04;25.66
79374;BME280;68844;53.128;17.958;2023-10-08T07:22:04;101548.35;;;26.35;25.16
79374;BME280;68844;53.128;17.958;2023-10-08T07:24:44;101554.08;;;26.91;24.41
79374;BME280;68844;53.128;17.958;2023-10-08T07:27:18;101557.23;;;27.03;23.32
79374;BME280;68844;53.128;17.958;2023-10-08T07:29:48;101561.67;;;26.67;23.56
79374;BME280;68844;53.128;17.958;2023-10-08T07:32:14;101560.31;;;26.48;22.81
79374;BME280;68844;53.128;17.958;2023-10-08T07:34:44;101567.83;;;26.53;21.99
79374;BME280;68844;53.128;17.958;2023-10-08T07:37:10;101572.03;;;26.75;22.47
79374;BME280;68844;53.128;17.958;2023-10-08T07:39:37;101574.65;;;26.90;21.45
79374;BME280;68844;53.128;17.958;2023-10-08T07:42:12;101576.83;;;27.26;21.01
79374;BME280;68844;53.128;17.958;2023-10-08T07:44:38;101581.42;;;26.97;22.34
79374;BME280;68844;53.128;17.958;2023-10-08T07:47:05;101583.42;;;27.19;21.80
79374;BME280;68844;53.128;17.958;2023-10-08T07:49:40;101582.69;;;27.26;21.49
79374;BME280;68844;53.128;17.958;2023-10-08T07:52:09;101588.71;;;27.58;20.57
79374;BME280;68844;53.128;17.958;2023-10-08T07:54:41;101584.74;;;26.84;21.39
79374;BME280;68844;53.128;17.958;2023-10-08T07:57:07;101587.12;;;26.82;21.14
79374;BME280;68844;53.128;17.958;2023-10-08T07:59:37;101591.34;;;27.01;21.40
79374;BME280;68844;53.128;17.958;2023-10-08T08:02:14;101591.87;;;27.48;21.37
79374;BME280;68844;53.128;17.958;2023-10-08T08:04:41;101597.38;;;27.17;20.10
79374;BME280;68844;53.128;17.958;2023-10-08T08:07:18;101596.39;;;26.80;20.24
79374;BME280;68844;53.128;17.958;2023-10-08T08:09:46;101602.18;;;27.26;21.09
79374;BME280;68844;53.128;17.958;2023-10-08T08:12:24;101604.29;;;27.67;21.12
79374;BME280;68844;53.128;17.958;2023-10-08T08:14:51;101605.09;;;28.23;19.61
79374;BME280;68844;53.128;17.958;2023-10-08T08:17:18;101602.77;;;27.44;19.46
79374;BME280;68844;53.128;17.958;2023-10-08T08:19:48;101601.73;;;27.49;19.50
79374;BME280;68844;53.128;17.958;2023-10-08T08:22:15;101610.56;;;26.94;20.71
79374;BME280;68844;53.128;17.958;2023-10-08T08:24:50;101619.67;;;26.75;20.47
79374;BME280;68844;53.128;17.958;2023-10-08T08:27:22;101612.23;;;27.28;20.46
79374;BME280;68844;53.128;17.958;2023-10-08T08:29:51;101615.57;;;27.21;19.84
79374;BME280;68844;53.128;17.958;2023-10-08T08:32:24;101619.02;;;27.18;20.32
79374;BME280;68844;53.128;17.958;2023-10-08T08:34:50;101626.80;;;27.57;19.24
79374;BME280;68844;53.128;17.958;2023-10-08T08:37:16;101630.54;;;26.78;20.13
79374;BME280;68844;53.128;17.958;2023-10-08T08:39:42;101636.70;;;26.80;20.60
79374;BME280;68844;53.128;17.958;2023-10-08T08:42:08;101637.31;;;27.13;20.39
79374;BME280;68844;53.128;17.958;2023-10-08T08:44:37;101634.92;;;27.07;20.47
79374;BME280;68844;53.128;17.958;2023-10-08T08:47:11;101639.55;;;27.27;19.88
79374;BME280;68844;53.128;17.958;2023-10-08T08:49:42;101635.02;;;27.14;19.42
79374;BME280;68844;53.128;17.958;2023-10-08T08:52:08;101637.27;;;26.97;20.12
79374;BME280;68844;53.128;17.958;2023-10-08T08:54:34;101639.86;;;27.02;20.40
79374;BME280;68844;53.128;17.958;2023-10-08T08:57:02;101647.30;;;27.19;19.16
79374;BME280;68844;53.128;17.958;2023-10-08T08:59:30;101645.70;;;26.61;20.20
79374;BME280;68844;53.128;17.958;2023-10-08T09:02:00;101644.38;;;26.53;20.56
79374;BME280;68844;53.128;17.958;2023-10-08T09:04:30;101647.56;;;26.69;18.81
79374;BME280;68844;53.128;17.958;2023-10-08T09:06:58;101655.16;;;26.03;20.26
79374;BME280;68844;53.128;17.958;2023-10-08T09:09:31;101654.44;;;26.09;20.22
79374;BME280;68844;53.128;17.958;2023-10-08T09:11:57;101653.81;;;25.93;19.22
79374;BME280;68844;53.128;17.958;2023-10-08T09:14:25;101655.73;;;25.57;20.52
79374;BME280;68844;53.128;17.958;2023-10-08T09:16:55;101658.70;;;25.98;19.53
79374;BME280;68844;53.128;17.958;2023-10-08T09:19:23;101654.64;;;25.86;18.98
79374;BME280;68844;53.128;17.958;2023-10-08T09:22:05;101658.36;;;25.22;20.06
79374;BME280;68844;53.128;17.958;2023-10-08T09:24:41;101656.73;;;25.36;20.64
79374;BME280;68844;53.128;17.958;2023-10-08T09:27:10;101658.80;;;24.99;19.95
79374;BME280;68844;53.128;17.958;2023-10-08T09:29:44;101669.14;;;24.79;20.38
79374;BME280;68844;53.128;17.958;2023-10-08T09:32:12;101664.08;;;24.79;20.02
79374;BME280;68844;53.128;17.958;2023-10-08T09:34:49;101665.77;;;24.02;21.61
79374;BME280;68844;53.128;17.958;2023-10-08T09:37:17;101664.65;;;24.82;20.82
79374;BME280;68844;53.128;17.958;2023-10-08T09:39:44;101655.56;;;24.55;20.18
79374;BME280;68844;53.128;17.958;2023-10-08T09:42:12;101660.90;;;24.59;20.73
79374;BME280;68844;53.128;17.958;2023-10-08T09:44:38;101665.70;;;24.79;19.77
79374;BME280;68844;53.128;17.958;2023-10-08T09:47:06;101664.44;;;24.14;20.61
79374;BME280;68844;53.128;17.958;2023-10-08T09:49:33;101668.95;;;24.28;20.51
79374;BME280;68844;53.128;17.958;2023-10-08T09:52:03;101669.39;;;23.89;20.12
79374;BME280;68844;53.128;17.958;2023-10-08T09:54:59;101673.20;;;24.21;20.85
79374;BME280;68844;53.128;17.958;2023-10-08T09:57:22;101681.69;;;24.39;20.42
79374;BME280;68844;53.128;17.958;2023-10-08T09:59:53;101686.20;;;23.99;20.36
79374;BME280;68844;53.128;17.958;2023-10-08T10:02:19;101684.92;;;23.61;20.95
79374;BME280;68844;53.128;17.958;2023-10-08T10:04:50;101687.39;;;23.62;21.01
79374;BME280;68844;53.128;17.958;2023-10-08T10:07:19;101690.67;;;22.86;22.06
79374;BME280;68844;53.128;17.958;2023-10-08T10:09:50;101688.52;;;22.64;22.04
79374;BME280;68844;53.128;17.958;2023-10-08T10:12:33;101687.02;;;21.95;23.44
79374;BME280;68844;53.128;17.958;2023-10-08T10:15:01;101695.14;;;22.54;22.60
79374;BME280;68844;53.128;17.958;2023-10-08T10:17:27;101697.76;;;22.93;22.80
79374;BME280;68844;53.128;17.958;2023-10-08T10:20:01;101699.77;;;21.79;24.09
79374;BME280;68844;53.128;17.958;2023-10-08T10:22:29;101703.27;;;21.05;24.29
79374;BME280;68844;53.128;17.958;2023-10-08T10:24:59;101707.83;;;20.89;24.58
79374;BME280;68844;53.128;17.958;2023-10-08T10:27:30;101703.64;;;20.13;25.48
79374;BME280;68844;53.128;17.958;2023-10-08T10:30:05;101701.94;;;19.43;25.91
79374;BME280;68844;53.128;17.958;2023-10-08T10:32:35;101703.08;;;19.15;26.05
79374;BME280;68844;53.128;17.958;2023-10-08T10:35:02;101695.92;;;19.47;25.95
79374;BME280;68844;53.128;17.958;2023-10-08T10:37:37;101694.05;;;19.97;25.48
79374;BME280;68844;53.128;17.958;2023-10-08T10:40:08;101690.70;;;20.37;25.60
79374;BME280;68844;53.128;17.958;2023-10-08T10:42:40;101692.50;;;20.67;25.11
79374;BME280;68844;53.128;17.958;2023-10-08T10:45:14;101703.21;;;20.72;25.20
79374;BME280;68844;53.128;17.958;2023-10-08T10:48:03;101700.77;;;20.30;24.64
79374;BME280;68844;53.128;17.958;2023-10-08T10:50:49;101711.72;;;18.89;26.36
79374;BME280;68844;53.128;17.958;2023-10-08T10:53:39;101708.04;;;18.62;26.96
79374;BME280;68844;53.128;17.958;2023-10-08T10:56:34;101704.53;;;18.61;26.44
79374;BME280;68844;53.128;17.958;2023-10-08T10:59:08;101702.23;;;18.23;27.63
79374;BME280;68844;53.128;17.958;2023-10-08T11:01:52;101699.45;;;18.88;26.89
79374;BME280;68844;53.128;17.958;2023-10-08T11:04:31;101706.77;;;18.70;26.65
79374;BME280;68844;53.128;17.958;2023-10-08T11:06:57;101710.77;;;18.50;25.40
79374;BME280;68844;53.128;17.958;2023-10-08T11:09:25;101713.77;;;17.73;25.26
79374;BME280;68844;53.128;17.958;2023-10-08T11:12:06;101714.90;;;17.75;26.15
79374;BME280;68844;53.128;17.958;2023-10-08T11:14:39;101717.71;;;18.31;25.56
79374;BME280;68844;53.128;17.958;2023-10-08T11:17:14;101717.84;;;18.19;25.45
79374;BME280;68844;53.128;17.958;2023-10-08T11:19:42;101715.59;;;18.19;24.07
79374;BME280;68844;53.128;17.958;2023-10-08T11:22:15;101718.91;;;18.15;24.60
79374;BME280;68844;53.128;17.958;2023-10-08T11:24:45;101712.44;;;18.08;24.69
79374;BME280;68844;53.128;17.958;2023-10-08T11:27:20;101712.75;;;18.08;24.60
79374;BME280;68844;53.128;17.958;2023-10-08T11:29:56;101724.71;;;17.79;24.15
79374;BME280;68844;53.128;17.958;2023-10-08T11:32:25;101727.14;;;17.57;23.12
79374;BME280;68844;53.128;17.958;2023-10-08T11:34:59;101731.23;;;16.37;24.34
79374;BME280;68844;53.128;17.958;2023-10-08T11:37:29;101732.21;;;16.28;24.29
79374;BME280;68844;53.128;17.958;2023-10-08T11:39:56;101727.66;;;16.22;25.27
79374;BME280;68844;53.128;17.958;2023-10-08T11:42:25;101728.08;;;16.42;25.96
79374;BME280;68844;53.128;17.958;2023-10-08T11:44:57;101729.56;;;16.57;24.89
79374;BME280;68844;53.128;17.958;2023-10-08T11:47:47;101730.04;;;16.47;24.78
79374;BME280;68844;53.128;17.958;2023-10-08T11:50:30;101734.36;;;15.92;26.05
79374;BME280;68844;53.128;17.958;2023-10-08T11:52:58;101733.24;;;15.56;26.48
79374;BME280;68844;53.128;17.958;2023-10-08T11:55:30;101735.02;;;15.24;27.10
79374;BME280;68844;53.128;17.958;2023-10-08T11:58:00;101742.56;;;15.17;27.67
79374;BME280;68844;53.128;17.958;2023-10-08T12:00:26;101742.17;;;15.00;26.69
79374;BME280;68844;53.128;17.958;2023-10-08T12:02:53;101741.23;;;14.59;27.71
79374;BME280;68844;53.128;17.958;2023-10-08T12:05:22;101744.34;;;14.26;28.57
79374;BME280;68844;53.128;17.958;2023-10-08T12:07:52;101741.66;;;14.11;28.99
79374;BME280;68844;53.128;17.958;2023-10-08T12:10:19;101745.59;;;14.13;29.09
79374;BME280;68844;53.128;17.958;2023-10-08T12:12:49;101747.36;;;14.35;28.00
79374;BME280;68844;53.128;17.958;2023-10-08T12:15:15;101750.08;;;14.24;28.06
79374;BME280;68844;53.128;17.958;2023-10-08T12:17:47;101753.48;;;14.02;28.09
79374;BME280;68844;53.128;17.958;2023-10-08T12:20:34;101762.38;;;13.85;28.10
79374;BME280;68844;53.128;17.958;2023-10-08T12:23:03;101762.50;;;13.73;28.59
79374;BME280;68844;53.128;17.958;2023-10-08T12:25:30;101757.01;;;13.77;28.81
79374;BME280;68844;53.128;17.958;2023-10-08T12:27:59;101758.73;;;13.71;28.07
79374;BME280;68844;53.128;17.958;2023-10-08T12:30:33;101758.33;;;13.72;27.48
79374;BME280;68844;53.128;17.958;2023-10-08T12:33:07;101757.63;;;13.55;27.45
79374;BME280;68844;53.128;17.958;2023-10-08T12:35:39;101758.06;;;13.43;28.28
79374;BME280;68844;53.128;17.958;2023-10-08T12:38:06;101762.80;;;13.31;28.21
79374;BME280;68844;53.128;17.958;2023-10-08T12:40:32;101761.52;;;13.18;28.30
79374;BME280;68844;53.128;17.958;2023-10-08T12:43:14;101765.27;;;13.04;29.44
79374;BME280;68844;53.128;17.958;2023-10-08T12:45:48;101757.91;;;12.95;29.23
79374;BME280;68844;53.128;17.958;2023-10-08T12:48:23;101762.09;;;12.90;29.05
79374;BME280;68844;53.128;17.958;2023-10-08T12:50:56;101760.76;;;12.77;29.12
79374;BME280;68844;53.128;17.958;2023-10-08T12:53:27;101763.71;;;12.67;29.77
79374;BME280;68844;53.128;17.958;2023-10-08T12:56:06;101761.40;;;12.64;30.06
79374;BME280;68844;53.128;17.958;2023-10-08T12:58:34;101764.45;;;12.60;30.87
79374;BME280;68844;53.128;17.958;2023-10-08T13:01:07;101766.02;;;12.57;29.96
79374;BME280;68844;53.128;17.958;2023-10-08T13:03:36;101766.46;;;12.48;30.38
79374;BME280;68844;53.128;17.958;2023-10-08T13:06:08;101763.52;;;12.47;30.03
79374;BME280;68844;53.128;17.958;2023-10-08T13:08:41;101762.60;;;12.40;31.19
79374;BME280;68844;53.128;17.958;2023-10-08T13:11:07;101761.49;;;12.37;31.81